• Join FlightAware (Why Join?)
  • Login
  • US Flag 
05:20PM EDT


 

Airport Tracker/Info


-or-


 

Live Flight TrackerFlight Track Log ✈ N5253C ✈ 17-Apr-2013 ✈ KLAN - KYIP

Flight Track Log - Related Links

Times and Time Zones

All times are in EDT time to prevent confusion due to time zone crossing. See the N5253C flight status page for this flight to view local times or setup timezone preferences in your user account.

Time Position Orientation Groundspeed Altitude Reporting Facility
EDT Latitude Longitude Course Direction KTS MPH feet Rate Location/Type
12:57AM 42.7259 -84.4205 109° East  Level FlightAware Approximate
12:58AM 42.7192 -84.3933 109° East  Level FlightAware Approximate
12:58AM 42.6106 -84.3017 125° Southeast 117 135 5,000  Level Cleveland Center
12:59AM 42.7112 -84.3668 114° Southeast  Level FlightAware Approximate
12:59AM 42.5950 -84.2697 123° Southeast 117 135 5,000  Level Cleveland Center
01:00AM 42.7025 -84.3407 114° Southeast  Level FlightAware Approximate
01:00AM 42.5775 -84.2322 122° Southeast 119 137 5,000  Level Cleveland Center
01:01AM 42.6939 -84.3146 114° Southeast  Level FlightAware Approximate
01:01AM 42.5597 -84.1972 125° Southeast 118 136 5,000  Level Cleveland Center
01:02AM 42.6852 -84.2885 114° Southeast  Level FlightAware Approximate
01:02AM 42.5444 -84.1569 117° Southeast 117 135 5,000  Level Cleveland Center
01:03AM 42.5244 -84.1219 128° Southeast 117 135 5,000  Level Cleveland Center
01:04AM 42.5069 -84.0844 122° Southeast 117 135 5,000  Level Cleveland Center
01:05AM 42.4894 -84.0467 122° Southeast 116 133 5,000  Level Cleveland Center
01:06AM 42.4717 -84.0092 123° Southeast 118 136 5,000  Level Cleveland Center
01:07AM 42.4561 -83.9717 119° Southeast 115 132 5,000  Level Cleveland Center
01:08AM 42.4553 -83.9267 91° East 116 133 5,000  Level Cleveland Center
01:09AM 42.4567 -83.8817 88° East 117 135 5,000  Level Cleveland Center
01:10AM 42.4558 -83.8367 91° East 117 135 5,000  Level Cleveland Center
01:11AM 42.4550 -83.7914 91° East 117 135 5,000  Level Cleveland Center
01:12AM 42.4561 -83.7494 88° East 129 148 5,000  Level Cleveland Center
01:13AM 42.4553 -83.7042 91° East 115 132 5,000  Level Cleveland Center
01:14AM 42.4567 -83.6594 88° East 117 135 5,000  Level Cleveland Center
01:15AM 42.4556 -83.6169 92° East 116 133 5,000  Level Cleveland Center
01:16AM 42.4567 -83.5747 88° East 117 135 5,000  Level Cleveland Center
01:17AM 42.4578 -83.5328 88° East 112 129 5,000 -300 Level Cleveland Center
01:18AM 42.4589 -83.4906 88° East 101 116 4,500 -540 Descending Cleveland Center
01:19AM 42.4556 -83.4539 97° East 98 113 4,000 -300 Descending Cleveland Center
01:20AM 42.4567 -83.4172 88° East 101 116 4,000  Level Cleveland Center
01:21AM 42.4514 -83.3747 100° East 106 122 4,000  Level Cleveland Center
01:22AM 42.4522 -83.3353 88° East 106 122 4,000  Level Cleveland Center
01:23AM 42.4469 -83.2958 100° East 106 122 4,000  Level Cleveland Center
01:24AM 42.4417 -83.2589 101° East 109 125 4,000  Level Cleveland Center
01:25AM 42.4103 -83.2578 179° South 113 130 4,000  Level Cleveland Center
01:26AM 42.3769 -83.2589 181° South 106 122 4,000 -240 Level Cleveland Center
01:27AM 42.3517 -83.2747 205° Southwest 117 135 3,600 -540 Descending Cleveland Center
01:28AM 42.3261 -83.2933 208° Southwest 102 117 3,000 -600 Descending Cleveland Center
01:29AM 42.3006 -83.3119 208° Southwest 102 117 2,400 -600 Descending Cleveland Center
01:30AM 42.2772 -83.3306 211° Southwest 106 122 1,900 -600 Descending Cleveland Center
01:31AM 42.2497 -83.3492 207° Southwest 105 121 1,300 -240 Descending Cleveland Center
01:34AM 42.1964 -83.3944 212° Southwest 94 108 1,100 -120 Descending Cleveland Center